Time;durP1;ratioP1;P1;durP2;ratioP2;P2;SDS_P1;SDS_P2;PMS_P1;PMS_P2;Temp;Humidity;BMP_temperature;BMP_pressure;BME280_temperature;BME280_humidity;BME280_pressure;Samples;Min_cycle;Max_cycle;Signal;HPM_P1;HPM_P2
2022/09/05 00:00:54;;;;;;;;;2.00;2.00;;;;;24.27;47.48;100972.81;5084997;27;45523;-59
2022/09/05 00:03:28;;;;;;;;;3.50;3.50;;;;;24.22;47.69;100958.84;5082051;27;45496;-56
2022/09/05 00:06:03;;;;;;;;;4.50;3.00;;;;;24.21;47.32;100966.16;5080637;27;46473;-58
2022/09/05 00:09:11;;;;;;;;;4.25;3.00;;;;;24.18;47.83;100969.22;5085720;27;45341;-57
2022/09/05 00:12:11;;;;;;;;;4.00;2.00;;;;;24.09;47.60;100965.63;5076332;27;45946;-58
2022/09/05 00:14:49;;;;;;;;;1.75;1.75;;;;;24.10;48.09;100964.63;5053022;27;45501;-58
2022/09/05 00:17:23;;;;;;;;;2.00;2.00;;;;;24.07;47.57;100958.63;5076107;27;45339;-58
2022/09/05 00:19:59;;;;;;;;;2.20;2.20;;;;;24.06;47.90;100965.09;5076849;27;45287;-57
2022/09/05 00:23:00;;;;;;;;;3.60;3.60;;;;;23.99;47.44;100964.06;5078526;27;45536;-57
2022/09/05 00:25:32;;;;;;;;;1.75;1.75;;;;;24.00;47.75;100972.03;5076199;27;45802;-57
2022/09/05 00:28:00;;;;;;;;;3.00;3.00;;;;;23.96;48.23;100986.97;5082867;27;46319;-58
2022/09/05 00:30:35;;;;;;;;;3.75;2.00;;;;;23.91;48.80;100981.16;5076081;27;45329;-56
2022/09/05 00:33:45;;;;;;;;;4.00;2.75;;;;;23.88;48.69;100978.78;5092661;27;45465;-56
2022/09/05 00:36:38;;;;;;;;;2.25;2.25;;;;;23.78;48.55;100987.03;5080289;27;45721;-57
2022/09/05 00:39:10;;;;;;;;;3.00;2.00;;;;;23.76;49.23;100975.50;5095745;27;46139;-58
2022/09/05 00:41:36;;;;;;;;;4.00;2.00;;;;;23.70;49.16;100970.72;5095592;27;45438;-59
2022/09/05 00:44:03;;;;;;;;;2.25;2.25;;;;;23.70;49.16;100953.56;5094272;27;45421;-58
2022/09/05 00:46:34;;;;;;;;;2.00;2.00;;;;;23.66;49.17;100954.91;5088040;27;45281;-58
2022/09/05 00:49:16;;;;;;;;;1.00;1.00;;;;;23.62;49.46;100956.25;5095619;27;46448;-58
2022/09/05 00:52:14;;;;;;;;;2.00;2.00;;;;;23.61;49.64;100965.41;5091232;27;45764;-58
2022/09/05 00:55:12;;;;;;;;;1.00;1.00;;;;;23.62;49.61;100991.53;5087112;27;46332;-57
2022/09/05 00:57:46;;;;;;;;;3.00;3.00;;;;;23.62;49.56;100996.97;5096093;27;45221;-57
2022/09/05 01:00:23;;;;;;;;;2.00;2.00;;;;;23.62;49.50;100996.97;5092182;27;45599;-57
2022/09/05 01:02:55;;;;;;;;;3.50;3.50;;;;;23.64;49.92;100982.22;5083286;27;45569;-56
2022/09/05 01:05:51;;;;;;;;;3.00;3.00;;;;;23.67;49.14;100960.16;5096304;27;45494;-58
2022/09/05 01:08:16;;;;;;;;;2.75;2.75;;;;;23.70;49.91;100962.56;5082693;27;45404;-58
2022/09/05 01:10:52;;;;;;;;;2.00;2.00;;;;;23.71;50.26;100960.72;5095791;27;45274;-56
2022/09/05 01:13:42;;;;;;;;;3.00;3.00;;;;;23.71;50.83;100947.97;5084819;27;45471;-58
2022/09/05 01:16:45;;;;;;;;;2.00;2.00;;;;;23.69;50.91;100941.00;5090177;27;45446;-56
2022/09/05 01:19:32;;;;;;;;;2.25;2.25;;;;;23.68;50.59;100929.28;5092343;27;45410;-58
2022/09/05 01:22:31;;;;;;;;;1.00;1.00;;;;;23.65;50.17;100939.63;5094664;27;46296;-57
2022/09/05 01:25:18;;;;;;;;;1.50;1.50;;;;;23.62;50.81;100950.81;5091536;27;45427;-58
2022/09/05 01:28:07;;;;;;;;;1.25;1.25;;;;;23.58;50.91;100944.00;5095338;27;45395;-57
2022/09/05 01:30:56;;;;;;;;;2.00;2.00;;;;;23.55;51.18;100970.41;5095295;27;45331;-57
2022/09/05 01:33:55;;;;;;;;;3.75;1.50;;;;;23.54;50.80;101009.44;5091251;27;46334;-57
2022/09/05 01:36:43;;;;;;;;;2.00;2.00;;;;;23.54;51.48;100990.44;5082452;27;45679;-57
2022/09/05 01:39:28;;;;;;;;;3.50;3.50;;;;;23.34;67.57;100975.38;5093093;27;45531;-59
2022/09/05 01:42:08;;;;;;;;;3.00;2.00;;;;;22.71;76.05;100967.38;5089981;27;45377;-55
2022/09/05 01:44:54;;;;;;;;;4.25;3.00;;;;;22.28;63.04;100928.34;5098552;27;45326;-57
2022/09/05 01:47:34;;;;;;;;;1.50;1.00;;;;;22.12;62.07;100905.63;5099504;27;45512;-57
2022/09/05 01:50:23;;;;;;;;;2.00;2.00;;;;;22.07;61.71;100897.97;5099361;27;45327;-56
2022/09/05 01:53:25;;;;;;;;;2.00;2.00;;;;;22.03;61.47;100939.88;5109082;27;45627;-58
2022/09/05 01:56:20;;;;;;;;;3.00;2.00;;;;;21.93;62.65;100936.38;5096830;27;46773;-57
2022/09/05 01:58:57;;;;;;;;;2.00;2.00;;;;;21.87;62.81;100934.25;5092798;27;45376;-57
2022/09/05 02:01:39;;;;;;;;;3.00;3.00;;;;;21.86;62.98;100927.13;5091939;27;45781;-57
2022/09/05 02:04:52;;;;;;;;;2.00;2.00;;;;;21.81;63.72;100922.19;5101662;27;45404;-57
2022/09/05 02:07:53;;;;;;;;;3.25;1.00;;;;;21.78;61.68;100920.63;5014822;27;47338;-57
2022/09/05 02:10:49;;;;;;;;;4.25;2.00;;;;;21.79;60.68;100970.22;5097063;27;45232;-57
2022/09/05 02:13:45;;;;;;;;;3.00;3.00;;;;;21.79;57.95;100944.00;5090133;27;45496;-57
2022/09/05 02:16:24;;;;;;;;;1.25;1.25;;;;;21.76;59.72;100944.31;5117223;27;45373;-56
2022/09/05 02:19:07;;;;;;;;;2.75;2.75;;;;;21.82;58.83;100947.41;5091016;27;45816;-58
2022/09/05 02:21:35;;;;;;;;;3.00;3.00;;;;;21.85;59.18;100947.09;5097874;27;45342;-56
2022/09/05 02:24:20;;;;;;;;;3.25;3.25;;;;;21.87;59.95;100950.50;5082396;27;45603;-57
2022/09/05 02:27:04;;;;;;;;;3.00;2.00;;;;;21.90;58.01;100942.94;5083401;27;45305;-57
2022/09/05 02:29:52;;;;;;;;;1.00;1.00;;;;;21.91;59.68;100944.66;5092884;27;45475;-57
2022/09/05 02:32:25;;;;;;;;;2.00;2.00;;;;;21.89;59.55;100943.97;5090679;27;45494;-57
2022/09/05 02:35:05;;;;;;;;;4.33;3.33;;;;;21.94;59.32;100947.06;5079742;27;45395;-57
2022/09/05 02:37:55;;;;;;;;;2.00;2.00;;;;;21.97;60.09;100956.72;5081709;27;46878;-57
2022/09/05 02:40:30;;;;;;;;;3.00;3.00;;;;;21.98;59.37;100948.44;5082232;27;45556;-57
2022/09/05 02:43:05;;;;;;;;;4.50;3.50;;;;;21.96;58.55;100950.44;5093413;27;45447;-58
2022/09/05 02:45:47;;;;;;;;;5.00;4.00;;;;;21.98;59.47;100958.44;5079165;27;45484;-57
2022/09/05 02:48:37;;;;;;;;;3.00;3.00;;;;;21.97;59.59;100954.00;5080016;27;45336;-56
2022/09/05 02:51:31;;;;;;;;;3.75;3.00;;;;;21.95;59.30;100962.28;5082335;27;45438;-57
2022/09/05 02:54:06;;;;;;;;;2.75;2.75;;;;;21.86;60.25;100946.09;5082574;27;45470;-56
2022/09/05 02:56:58;;;;;;;;;4.50;2.50;;;;;21.92;60.03;100965.31;5082963;27;45483;-56
2022/09/05 02:59:56;;;;;;;;;5.00;5.00;;;;;21.94;59.84;100984.13;5092903;27;45528;-57
2022/09/05 03:02:44;;;;;;;;;3.00;3.00;;;;;21.91;60.31;100979.00;5080069;27;45380;-57
2022/09/05 03:05:39;;;;;;;;;2.75;2.75;;;;;21.91;60.21;100987.13;5078238;27;45182;-62
2022/09/05 03:08:24;;;;;;;;;5.00;5.00;;;;;21.91;59.92;100982.56;5088011;27;45228;-57
2022/09/05 03:11:14;;;;;;;;;4.25;4.25;;;;;21.93;60.63;100985.97;5094104;27;47638;-56
2022/09/05 03:13:56;;;;;;;;;2.75;2.75;;;;;21.92;60.49;100991.53;5084432;27;45570;-56
2022/09/05 03:16:24;;;;;;;;;3.00;3.00;;;;;21.91;60.79;101000.66;5091437;27;45768;-58
2022/09/05 03:19:37;;;;;;;;;4.00;4.00;;;;;21.89;60.38;101010.78;5086650;27;45555;-56
2022/09/05 03:22:54;;;;;;;;;3.25;3.25;;;;;21.88;60.47;101022.63;5042757;27;45918;-57
2022/09/05 03:25:23;;;;;;;;;2.00;2.00;;;;;21.86;60.33;101028.16;5082933;27;45506;-58
2022/09/05 03:28:19;;;;;;;;;3.00;3.00;;;;;21.85;60.48;101012.06;5092478;27;46096;-56
2022/09/05 03:30:59;;;;;;;;;3.00;3.00;;;;;21.86;60.76;101016.50;5084936;27;45708;-56
2022/09/05 03:33:36;;;;;;;;;4.25;4.00;;;;;21.86;60.68;101021.91;5096649;27;45340;-56
2022/09/05 03:36:08;;;;;;;;;2.50;2.50;;;;;21.87;60.75;101018.19;5096840;27;45340;-56
2022/09/05 03:39:10;;;;;;;;;2.25;2.25;;;;;21.85;60.91;101014.78;5095993;27;47069;-57
2022/09/05 03:41:48;;;;;;;;;6.00;6.00;;;;;21.85;61.09;101021.06;5096385;27;45445;-56
2022/09/05 03:44:47;;;;;;;;;4.00;3.00;;;;;21.86;60.73;101013.78;5076474;27;45422;-58
2022/09/05 03:47:31;;;;;;;;;5.67;4.67;;;;;21.86;61.82;101013.78;5076702;27;45302;-57
2022/09/05 03:50:08;;;;;;;;;5.25;4.50;;;;;21.83;61.70;101011.38;5092389;27;45581;-57
2022/09/05 03:52:52;;;;;;;;;3.00;2.67;;;;;21.83;61.12;101008.66;5095691;27;45419;-57
2022/09/05 03:55:20;;;;;;;;;4.00;4.00;;;;;21.81;61.87;101006.13;5097268;27;45539;-57
2022/09/05 03:57:54;;;;;;;;;5.33;4.00;;;;;21.80;61.91;101012.53;5096634;27;45704;-56
2022/09/05 04:00:46;;;;;;;;;3.00;3.00;;;;;21.76;60.57;101011.97;5081796;27;45358;-56
2022/09/05 04:03:31;;;;;;;;;4.75;3.25;;;;;21.75;61.54;101014.84;5092632;27;45452;-57
2022/09/05 04:06:04;;;;;;;;;4.00;4.00;;;;;21.76;60.93;101013.84;5077499;27;45405;-57
2022/09/05 04:09:05;;;;;;;;;5.00;5.00;;;;;21.77;61.08;101016.41;5083855;27;45321;-55
2022/09/05 04:11:46;;;;;;;;;4.00;4.00;;;;;21.73;61.35;101014.97;5054929;27;45486;-56
2022/09/05 04:14:32;;;;;;;;;5.67;4.67;;;;;21.72;61.82;101012.41;5090398;27;45400;-56
2022/09/05 04:17:23;;;;;;;;;3.00;3.00;;;;;21.70;61.01;101020.69;5083700;27;45338;-56
2022/09/05 04:19:58;;;;;;;;;3.00;3.00;;;;;21.72;60.61;101013.25;5089359;27;45580;-56
2022/09/05 04:22:32;;;;;;;;;5.75;4.00;;;;;21.66;60.51;101008.44;5098971;27;45418;-57
2022/09/05 04:25:15;;;;;;;;;3.00;3.00;;;;;21.54;61.34;101006.91;5095290;27;45577;-57
2022/09/05 04:27:56;;;;;;;;;7.00;6.00;;;;;21.52;61.39;101017.03;5090723;27;45424;-57
2022/09/05 04:30:27;;;;;;;;;3.00;3.00;;;;;21.55;60.35;101019.44;5089015;27;46983;-58
2022/09/05 04:33:19;;;;;;;;;2.25;2.25;;;;;21.52;60.81;101006.22;5095057;27;45453;-57
2022/09/05 04:36:13;;;;;;;;;3.00;3.00;;;;;21.57;60.46;101003.91;5095458;27;45487;-56
2022/09/05 04:38:41;;;;;;;;;4.00;2.67;;;;;21.56;60.45;100994.09;5083442;27;45456;-56
2022/09/05 04:41:15;;;;;;;;;3.00;3.00;;;;;21.55;60.17;100999.66;5090671;27;47054;-56
2022/09/05 04:43:43;;;;;;;;;3.00;3.00;;;;;21.54;60.66;101009.63;5094197;27;45486;-58
2022/09/05 04:46:35;;;;;;;;;3.00;3.00;;;;;21.52;60.92;101010.78;5095563;27;45456;-57
2022/09/05 04:49:09;;;;;;;;;7.75;4.75;;;;;21.52;60.80;101025.16;5089183;27;45604;-57
2022/09/05 04:51:51;;;;;;;;;4.00;4.00;;;;;21.51;60.63;101038.84;5096065;27;45392;-57
2022/09/05 04:54:31;;;;;;;;;5.33;4.00;;;;;21.52;60.80;101044.09;5093623;27;46309;-57
2022/09/05 04:57:13;;;;;;;;;3.67;3.67;;;;;21.52;61.01;101043.25;5093863;27;45841;-58
2022/09/05 04:59:53;;;;;;;;;6.00;4.67;;;;;21.48;61.27;101043.56;5079261;27;45165;-57
2022/09/05 05:02:34;;;;;;;;;5.00;5.00;;;;;21.45;60.60;101042.97;5093288;27;46240;-55
2022/09/05 05:05:03;;;;;;;;;3.00;3.00;;;;;21.43;60.63;101034.13;5096597;27;45302;-56
2022/09/05 05:07:50;;;;;;;;;2.67;2.33;;;;;21.39;60.44;101024.63;5081760;27;45510;-56
2022/09/05 05:10:25;;;;;;;;;3.33;3.33;;;;;21.40;61.09;101027.19;5083811;27;45580;-56
2022/09/05 05:13:29;;;;;;;;;3.00;3.00;;;;;21.41;61.16;101030.72;5096325;27;45534;-56
2022/09/05 05:16:02;;;;;;;;;3.33;2.33;;;;;21.42;61.75;101041.41;5058066;27;45587;-56
2022/09/05 05:18:59;;;;;;;;;5.67;5.67;;;;;21.42;61.51;101038.69;5089158;27;45646;-57
2022/09/05 05:21:28;;;;;;;;;3.33;3.00;;;;;21.41;61.16;101036.16;5095873;27;45555;-58
2022/09/05 05:24:29;;;;;;;;;4.50;3.00;;;;;21.41;61.20;101030.72;5096819;27;45710;-57
2022/09/05 05:27:15;;;;;;;;;3.67;3.67;;;;;21.43;61.19;101029.59;5055252;27;45530;-57
2022/09/05 05:29:58;;;;;;;;;6.67;6.67;;;;;21.44;61.28;101033.13;5090448;27;45325;-58
2022/09/05 05:32:29;;;;;;;;;4.00;4.00;;;;;21.43;61.38;101031.44;5102147;27;45380;-57
2022/09/05 05:35:07;;;;;;;;;6.00;6.00;;;;;21.47;61.42;101030.13;5079658;27;46638;-58
2022/09/05 05:37:54;;;;;;;;;4.67;4.67;;;;;21.44;61.63;101030.44;5097966;27;45571;-57
2022/09/05 05:40:27;;;;;;;;;5.50;5.50;;;;;21.48;61.76;101046.25;5095930;27;45583;-58
2022/09/05 05:43:11;;;;;;;;;7.67;6.00;;;;;21.47;61.96;101038.25;5095180;27;45473;-59
2022/09/05 05:45:37;;;;;;;;;7.67;7.00;;;;;21.51;61.78;101038.84;5091461;27;45525;-57
2022/09/05 05:48:29;;;;;;;;;8.33;5.33;;;;;21.51;62.07;101050.50;5086901;27;45535;-59
2022/09/05 05:51:05;;;;;;;;;9.33;5.67;;;;;21.61;62.20;101050.47;5079048;27;45730;-58
2022/09/05 05:53:56;;;;;;;;;10.67;6.00;;;;;21.60;61.99;101046.91;5087024;27;45483;-57
2022/09/05 05:56:36;;;;;;;;;11.33;8.33;;;;;21.62;62.36;101047.66;5098338;27;45352;-57
2022/09/05 05:59:15;;;;;;;;;8.00;6.67;;;;;21.65;61.80;101060.03;5096465;27;45819;-60
2022/09/05 06:02:14;;;;;;;;;8.33;8.33;;;;;21.66;61.62;101059.88;5096286;27;45341;-60
2022/09/05 06:05:21;;;;;;;;;8.00;8.00;;;;;21.70;61.96;101064.00;5079708;27;45215;-60
2022/09/05 06:07:49;;;;;;;;;11.33;9.00;;;;;21.74;61.67;101075.38;5068819;27;45739;-57
2022/09/05 06:10:17;;;;;;;;;9.33;8.33;;;;;21.75;61.85;101072.56;5094783;27;45522;-54
2022/09/05 06:13:06;;;;;;;;;8.00;8.00;;;;;21.78;60.98;101083.06;5079245;27;45322;-57
2022/09/05 06:15:47;;;;;;;;;9.33;9.00;;;;;21.79;61.10;101079.38;5112794;27;45312;-57
2022/09/05 06:18:43;;;;;;;;;12.33;10.00;;;;;21.85;61.49;101086.03;5078445;27;45519;-57
2022/09/05 06:21:23;;;;;;;;;12.33;11.33;;;;;21.89;60.93;101105.56;5075948;27;45360;-56
2022/09/05 06:24:26;;;;;;;;;9.33;8.00;;;;;21.92;61.31;101102.56;5095703;27;45533;-58
2022/09/05 06:27:01;;;;;;;;;10.33;9.00;;;;;21.89;61.64;101097.44;5097821;27;45531;-57
2022/09/05 06:29:54;;;;;;;;;10.00;10.00;;;;;21.95;61.02;101107.69;5079673;27;47122;-58
2022/09/05 06:32:57;;;;;;;;;9.00;9.00;;;;;22.03;60.92;101107.81;5090997;27;45256;-57
2022/09/05 06:35:50;;;;;;;;;8.00;5.33;;;;;22.05;60.53;101113.94;5089062;27;47028;-57
2022/09/05 06:38:53;;;;;;;;;5.67;5.67;;;;;22.09;60.29;101123.50;5091178;27;45534;-60
2022/09/05 06:41:37;;;;;;;;;9.25;7.00;;;;;22.09;59.36;101115.38;5088061;27;45402;-57
2022/09/05 06:44:29;;;;;;;;;6.00;4.50;;;;;22.13;58.48;101130.31;5092267;27;45518;-57
2022/09/05 06:46:59;;;;;;;;;6.25;4.00;;;;;22.14;58.86;101137.47;5086119;27;45495;-58
2022/09/05 06:49:34;;;;;;;;;7.00;7.00;;;;;22.20;59.12;101136.00;5092817;27;45638;-57
2022/09/05 06:52:23;;;;;;;;;7.33;5.33;;;;;22.23;58.60;101152.81;5092745;27;46638;-56
2022/09/05 06:55:10;;;;;;;;;5.25;5.25;;;;;22.29;58.31;101162.22;5082755;27;45595;-58
2022/09/05 06:57:43;;;;;;;;;7.00;7.00;;;;;22.36;58.32;101169.59;5089567;27;45332;-57
2022/09/05 07:00:28;;;;;;;;;5.00;5.00;;;;;22.47;58.06;101173.13;5087636;27;45441;-58
2022/09/05 07:03:19;;;;;;;;;7.75;5.00;;;;;22.58;57.66;101190.06;5088454;27;47022;-57
2022/09/05 07:06:26;;;;;;;;;5.50;5.25;;;;;22.69;57.71;101191.72;5090436;27;45700;-57
2022/09/05 07:09:19;;;;;;;;;6.00;6.00;;;;;22.77;56.85;101172.84;5092217;27;45338;-58
2022/09/05 07:11:57;;;;;;;;;6.00;6.00;;;;;22.91;56.94;101166.94;5092534;27;45655;-59
2022/09/05 07:14:33;;;;;;;;;8.00;7.00;;;;;23.06;56.75;101175.44;5091551;27;46015;-57
2022/09/05 07:17:11;;;;;;;;;9.75;6.00;;;;;23.20;55.50;101177.63;5079198;27;45544;-57
2022/09/05 07:19:45;;;;;;;;;7.25;7.25;;;;;23.19;55.59;101164.22;5090015;27;45242;-57
2022/09/05 07:22:31;;;;;;;;;9.00;6.50;;;;;23.29;55.59;101180.41;5079151;27;45499;-57
2022/09/05 07:25:00;;;;;;;;;5.00;4.00;;;;;23.27;55.57;101183.25;5096438;27;45294;-56
2022/09/05 07:27:40;;;;;;;;;5.00;5.00;;;;;23.30;55.93;101191.09;5094193;27;45456;-57
2022/09/05 07:30:06;;;;;;;;;5.00;5.00;;;;;23.28;55.37;101178.69;5078194;27;45335;-57
2022/09/05 07:32:42;;;;;;;;;5.00;5.00;;;;;23.33;55.37;101181.81;5092996;27;45670;-56
2022/09/05 07:35:32;;;;;;;;;6.00;5.00;;;;;23.32;55.46;101172.81;5096562;27;46149;-57
2022/09/05 07:38:06;;;;;;;;;7.00;6.00;;;;;23.32;55.04;101175.53;5090964;27;45496;-59
2022/09/05 07:40:38;;;;;;;;;6.75;5.00;;;;;23.32;55.32;101152.97;5092072;27;45476;-56
2022/09/05 07:43:22;;;;;;;;;10.00;6.00;;;;;23.51;54.86;101175.38;5093795;27;47484;-57
2022/09/05 07:46:03;;;;;;;;;6.00;6.00;;;;;23.46;55.06;101166.00;5088460;27;47624;-62
2022/09/05 07:48:36;;;;;;;;;7.25;4.25;;;;;23.51;54.98;101153.66;5088637;27;45469;-57
2022/09/05 07:51:08;;;;;;;;;8.25;6.00;;;;;23.61;54.71;101152.75;5088715;27;45582;-61
2022/09/05 07:53:39;;;;;;;;;5.00;5.00;;;;;23.70;54.81;101141.81;5091427;27;45698;-57
2022/09/05 07:56:07;;;;;;;;;4.25;4.25;;;;;23.74;54.04;101134.19;5077347;27;45473;-58
2022/09/05 07:58:49;;;;;;;;;5.00;5.00;;;;;23.76;53.80;101138.44;5084796;27;45605;-57
2022/09/05 08:01:17;;;;;;;;;6.50;4.75;;;;;23.76;53.90;101143.03;5095646;27;45427;-59
2022/09/05 08:03:45;;;;;;;;;8.00;4.00;;;;;23.79;54.38;101137.28;5078063;27;45525;-58
2022/09/05 08:06:22;;;;;;;;;5.00;5.00;;;;;23.87;54.20;101134.63;5076786;27;46663;-57
2022/09/05 08:09:15;;;;;;;;;9.75;5.25;;;;;24.01;53.15;101130.47;5097305;27;45452;-57
2022/09/05 08:11:41;;;;;;;;;4.00;3.25;;;;;24.11;52.47;101121.19;5097023;27;45343;-58
2022/09/05 08:14:27;;;;;;;;;7.00;5.00;;;;;24.31;52.22;101131.84;5086051;27;45537;-57
2022/09/05 08:16:52;;;;;;;;;6.00;6.00;;;;;24.58;52.05;101128.06;5104019;27;46368;-59
2022/09/05 08:20:06;;;;;;;;;7.00;7.00;;;;;24.78;51.96;101123.22;5091648;27;45480;-57
2022/09/05 08:23:02;;;;;;;;;6.50;6.50;;;;;24.96;51.60;101129.38;5041576;27;45555;-59
2022/09/05 08:25:36;;;;;;;;;8.25;5.50;;;;;25.13;51.13;101116.69;5045686;27;45671;-58
2022/09/05 08:28:19;;;;;;;;;5.00;5.00;;;;;25.33;50.18;101123.53;5084153;27;46411;-59
2022/09/05 08:31:19;;;;;;;;;4.00;4.00;;;;;25.42;48.69;101122.53;5087996;27;45438;-57
2022/09/05 08:33:47;;;;;;;;;6.80;6.20;;;;;25.60;48.14;101116.91;5084713;27;46977;-58
2022/09/05 08:36:40;;;;;;;;;5.25;4.75;;;;;25.75;48.32;101117.94;5087923;27;45612;-58
2022/09/05 08:39:09;;;;;;;;;4.00;4.00;;;;;25.99;47.63;101125.22;5088965;27;45245;-59
2022/09/05 08:41:43;;;;;;;;;6.60;5.80;;;;;26.32;46.68;101127.88;5091378;27;45505;-58
2022/09/05 08:44:17;;;;;;;;;3.00;3.00;;;;;26.60;45.85;101122.88;5085240;27;46146;-58
2022/09/05 08:47:05;;;;;;;;;5.75;5.75;;;;;26.92;44.97;101128.13;5079862;27;45548;-57
2022/09/05 08:50:01;;;;;;;;;4.00;4.00;;;;;27.15;44.43;101127.34;5091714;27;45807;-59
2022/09/05 08:53:05;;;;;;;;;9.60;5.60;;;;;27.27;44.19;101120.44;5094708;27;45774;-57
2022/09/05 08:55:52;;;;;;;;;4.40;4.40;;;;;27.49;43.41;101126.94;5076674;27;45451;-59
2022/09/05 08:58:48;;;;;;;;;3.60;3.40;;;;;27.65;42.35;101128.72;5097147;27;45403;-59
2022/09/05 09:01:38;;;;;;;;;3.60;3.60;;;;;27.80;41.99;101132.31;5097119;27;46957;-61
2022/09/05 09:04:32;;;;;;;;;5.20;3.40;;;;;27.81;41.06;101142.22;5093508;27;47202;-59
2022/09/05 09:07:28;;;;;;;;;5.60;4.60;;;;;27.87;42.64;101160.63;5084502;27;45547;-56
2022/09/05 09:09:53;;;;;;;;;5.60;5.60;;;;;27.85;42.89;101162.66;5096001;27;45356;-58
2022/09/05 09:12:41;;;;;;;;;3.25;3.25;;;;;27.87;42.73;101155.16;5086526;27;45772;-57
2022/09/05 09:15:14;;;;;;;;;4.00;4.00;;;;;27.96;42.70;101162.22;5086606;27;45453;-57
2022/09/05 09:17:44;;;;;;;;;8.80;8.80;;;;;28.02;42.12;101157.91;5082603;27;47039;-57
2022/09/05 09:20:13;;;;;;;;;5.80;5.20;;;;;28.06;42.34;101151.88;5095067;27;45633;-58
2022/09/05 09:22:54;;;;;;;;;5.00;5.00;;;;;28.10;42.34;101155.94;5096006;27;45336;-58
2022/09/05 09:25:30;;;;;;;;;6.60;4.60;;;;;28.13;42.44;101150.13;5094798;27;45249;-56
2022/09/05 09:28:33;;;;;;;;;4.80;4.80;;;;;28.09;42.47;101153.38;5093388;27;45436;-57
2022/09/05 09:31:10;;;;;;;;;4.40;4.40;;;;;28.02;41.84;101157.91;5094867;27;45643;-58
2022/09/05 09:33:45;;;;;;;;;4.00;4.00;;;;;28.07;41.75;101160.94;5106483;27;45624;-58
2022/09/05 09:36:37;;;;;;;;;3.00;3.00;;;;;28.02;41.86;101160.66;5088058;27;46798;-58
2022/09/05 09:39:21;;;;;;;;;3.60;3.00;;;;;27.95;41.75;101146.88;5076211;27;45309;-59
2022/09/05 09:42:18;;;;;;;;;3.00;3.00;;;;;27.95;41.88;101149.59;5081578;27;45455;-56
2022/09/05 09:44:48;;;;;;;;;3.20;3.20;;;;;27.93;41.72;101140.75;5115677;27;46058;-59
2022/09/05 09:47:26;;;;;;;;;5.40;5.40;;;;;28.02;41.92;101136.91;5093713;27;45622;-58
2022/09/05 09:50:01;;;;;;;;;2.00;2.00;;;;;28.25;41.12;101135.94;5084914;27;46075;-61
2022/09/05 09:52:48;;;;;;;;;3.80;3.00;;;;;28.29;40.75;101124.50;5078179;27;45416;-58
2022/09/05 09:55:39;;;;;;;;;6.00;4.80;;;;;28.40;40.45;101128.66;5084646;27;46902;-57
2022/09/05 09:58:14;;;;;;;;;3.00;3.00;;;;;28.51;40.68;101119.94;5096560;27;45428;-57
2022/09/05 10:01:01;;;;;;;;;3.60;3.60;;;;;28.66;39.87;101122.69;5094006;27;45485;-58
2022/09/05 10:03:45;;;;;;;;;6.00;3.00;;;;;28.73;39.70;101116.22;5096818;27;45485;-58
2022/09/05 10:06:35;;;;;;;;;2.60;2.60;;;;;28.88;38.68;101109.91;5089869;27;45562;-59
2022/09/05 10:09:23;;;;;;;;;4.60;4.20;;;;;28.96;38.72;101104.31;5085106;27;45502;-58
2022/09/05 10:12:27;;;;;;;;;3.80;3.80;;;;;28.86;37.40;101095.53;5084428;27;45581;-60
2022/09/05 10:15:28;;;;;;;;;3.00;3.00;;;;;28.74;38.38;101086.97;5079246;27;45663;-61
2022/09/05 10:17:53;;;;;;;;;2.80;2.80;;;;;28.60;37.21;101080.50;5105195;27;45509;-60
2022/09/05 10:20:30;;;;;;;;;3.25;3.25;;;;;28.54;37.49;101081.25;5093664;27;45432;-60
2022/09/05 10:23:28;;;;;;;;;1.80;1.80;;;;;28.44;35.58;101076.09;5095555;27;45228;-59
2022/09/05 10:26:06;;;;;;;;;2.00;2.00;;;;;28.34;37.04;101074.69;5081571;27;45445;-59
2022/09/05 10:28:45;;;;;;;;;2.40;2.00;;;;;28.44;36.98;101080.72;5081738;27;45605;-59
2022/09/05 10:31:19;;;;;;;;;2.00;2.00;;;;;28.38;35.22;101082.31;5095034;27;45597;-58
2022/09/05 10:34:08;;;;;;;;;4.00;2.80;;;;;28.32;37.29;101077.59;5099993;27;45469;-59
2022/09/05 10:36:36;;;;;;;;;2.20;2.20;;;;;28.32;36.18;101079.50;5092084;27;45425;-60
2022/09/05 10:39:19;;;;;;;;;2.80;2.80;;;;;28.30;37.74;101085.16;5076678;27;46202;-60
2022/09/05 10:41:49;;;;;;;;;1.40;1.40;;;;;28.24;36.09;101079.56;5093808;27;45526;-60
2022/09/05 10:44:25;;;;;;;;;2.00;2.00;;;;;28.11;36.77;101061.91;5089540;27;45576;-60
2022/09/05 10:47:14;;;;;;;;;1.80;1.80;;;;;28.08;36.61;101069.66;5091480;27;45972;-60
2022/09/05 10:49:47;;;;;;;;;2.00;2.00;;;;;28.13;36.74;101065.34;5085071;27;45467;-60
2022/09/05 10:53:00;;;;;;;;;0.80;0.80;;;;;28.16;37.00;101061.38;5109512;27;45395;-59
2022/09/05 10:55:41;;;;;;;;;4.20;3.00;;;;;28.12;37.48;101066.34;5080076;27;45212;-60
2022/09/05 10:58:24;;;;;;;;;1.60;1.60;;;;;28.11;36.38;101063.81;5101983;27;45385;-60
2022/09/05 11:00:58;;;;;;;;;4.40;2.80;;;;;28.18;36.35;101062.03;5092691;27;45401;-60
2022/09/05 11:03:46;;;;;;;;;4.00;2.40;;;;;28.37;36.48;101063.34;5094894;27;45523;-61
2022/09/05 11:06:17;;;;;;;;;2.80;2.40;;;;;28.49;36.21;101062.66;5107747;27;45370;-60
2022/09/05 11:09:04;;;;;;;;;2.00;2.00;;;;;28.49;36.28;101048.97;5108358;27;45837;-61
2022/09/05 11:11:57;;;;;;;;;2.00;2.00;;;;;28.48;35.60;101051.91;5098394;27;45365;-62
2022/09/05 11:14:41;;;;;;;;;3.00;3.00;;;;;28.58;36.01;101060.69;5098435;27;45385;-60
2022/09/05 11:17:09;;;;;;;;;3.20;3.20;;;;;28.60;35.99;101055.84;5094823;27;45479;-61
2022/09/05 11:19:42;;;;;;;;;2.60;1.60;;;;;28.63;36.27;101051.88;5078132;27;45454;-60
2022/09/05 11:22:11;;;;;;;;;2.00;2.00;;;;;28.57;36.05;101036.25;5078222;27;46247;-62
2022/09/05 11:24:45;;;;;;;;;2.00;2.00;;;;;28.71;35.59;101047.16;5109658;27;45443;-60
2022/09/05 11:27:27;;;;;;;;;7.20;6.00;;;;;28.77;35.76;101054.56;5098117;27;45532;-61
2022/09/05 11:30:09;;;;;;;;;2.20;2.20;;;;;28.77;35.30;101049.09;5113397;27;45196;-62
2022/09/05 11:32:46;;;;;;;;;2.60;2.60;;;;;28.68;35.64;101049.44;5098047;27;45390;-59
2022/09/05 11:35:23;;;;;;;;;2.00;2.00;;;;;28.73;35.87;101049.69;5085548;27;45347;-68
2022/09/05 11:37:57;;;;;;;;;3.00;2.60;;;;;28.86;34.97;101043.50;5080343;27;45595;-61
2022/09/05 11:40:55;;;;;;;;;3.60;2.00;;;;;29.01;34.62;101044.31;5107203;27;45336;-63
2022/09/05 11:43:39;;;;;;;;;2.00;2.00;;;;;29.17;35.20;101046.81;5081747;27;46802;-59
2022/09/05 11:46:30;;;;;;;;;2.00;2.00;;;;;29.47;34.12;101043.94;5102349;27;45369;-61
2022/09/05 11:49:13;;;;;;;;;2.00;2.00;;;;;29.63;33.04;101033.53;5098392;27;45394;-58
2022/09/05 11:52:02;;;;;;;;;4.60;1.60;;;;;29.66;33.78;101027.63;5088958;27;45480;-58
2022/09/05 11:54:39;;;;;;;;;3.20;3.20;;;;;29.80;33.42;101027.72;5086990;27;45195;-58
2022/09/05 11:57:24;;;;;;;;;4.00;4.00;;;;;29.84;33.46;101013.44;5102131;27;45462;-57
2022/09/05 12:00:19;;;;;;;;;6.00;4.60;;;;;30.01;33.27;101018.56;5118444;27;45398;-58
2022/09/05 12:03:21;;;;;;;;;2.80;2.80;;;;;30.15;33.43;101020.34;5101575;27;45541;-58
2022/09/05 12:06:21;;;;;;;;;3.20;3.20;;;;;30.36;32.17;101012.03;5097427;27;46021;-57
2022/09/05 12:09:04;;;;;;;;;3.80;3.00;;;;;30.42;32.43;101011.19;5086592;27;45324;-58
2022/09/05 12:11:47;;;;;;;;;3.80;3.40;;;;;30.50;32.39;100991.81;5082712;27;45498;-59
2022/09/05 12:14:36;;;;;;;;;4.60;2.80;;;;;30.63;31.36;100996.50;5090599;27;45598;-59
2022/09/05 12:17:22;;;;;;;;;2.40;2.40;;;;;30.73;31.96;100990.59;5089799;27;46290;-58
2022/09/05 12:19:56;;;;;;;;;1.00;1.00;;;;;30.74;31.13;100993.16;5077006;27;45417;-58
2022/09/05 12:22:33;;;;;;;;;3.00;3.00;;;;;30.79;31.61;100990.63;5097101;27;45437;-58
2022/09/05 12:25:17;;;;;;;;;4.00;2.60;;;;;30.89;31.21;100984.72;5095221;27;45275;-59
2022/09/05 12:27:47;;;;;;;;;2.00;2.00;;;;;30.97;29.45;100980.91;5076728;27;46503;-59
2022/09/05 12:30:22;;;;;;;;;7.20;3.60;;;;;31.10;30.25;100975.44;5076807;27;45274;-58
2022/09/05 12:32:57;;;;;;;;;4.00;2.00;;;;;31.22;29.37;100968.28;5102107;27;45431;-58
2022/09/05 12:35:38;;;;;;;;;2.60;2.60;;;;;31.21;30.42;100965.75;5097409;27;45201;-59
2022/09/05 12:38:22;;;;;;;;;2.20;2.00;;;;;31.39;29.80;100950.31;5114644;27;46040;-59